createdAt,value
2023-07-30T00:02:22.942Z,0.90
2023-07-30T00:04:49.812Z,1.10
2023-07-30T00:07:16.758Z,0.73
2023-07-30T00:09:43.296Z,1.08
2023-07-30T00:12:10.646Z,0.60
2023-07-30T00:14:37.708Z,0.82
2023-07-30T00:17:05.064Z,0.63
2023-07-30T00:19:31.839Z,0.70
2023-07-30T00:21:58.376Z,0.85
2023-07-30T00:24:24.945Z,0.63
2023-07-30T00:26:51.535Z,0.40
2023-07-30T00:29:18.251Z,2.00
2023-07-30T00:31:45.296Z,0.77
2023-07-30T00:34:12.734Z,1.02
2023-07-30T00:36:39.311Z,1.05
2023-07-30T00:39:06.696Z,0.77
2023-07-30T00:41:33.376Z,2.25
2023-07-30T00:44:02.157Z,0.75
2023-07-30T00:46:29.058Z,0.90
2023-07-30T00:48:57.886Z,0.73
2023-07-30T00:51:26.329Z,1.00
2023-07-30T00:53:53.537Z,0.80
2023-07-30T00:56:20.168Z,0.90
2023-07-30T00:58:49.488Z,0.70
2023-07-30T01:01:16.767Z,1.25
2023-07-30T01:03:44.839Z,0.65
2023-07-30T01:06:11.563Z,0.15
2023-07-30T01:08:38.238Z,1.02
2023-07-30T01:11:06.298Z,0.93
2023-07-30T01:13:35.206Z,0.82
2023-07-30T01:16:02.074Z,0.90
2023-07-30T01:18:28.697Z,0.50
2023-07-30T01:20:58.986Z,0.93
2023-07-30T01:23:26.682Z,1.00
2023-07-30T01:26:09.267Z,0.85
2023-07-30T01:28:39.410Z,0.70
2023-07-30T01:33:33.641Z,0.80
2023-07-30T01:36:00.841Z,0.88
2023-07-30T01:38:28.361Z,0.28
2023-07-30T01:40:55.274Z,0.32
2023-07-30T01:43:21.871Z,0.63
2023-07-30T01:45:49.213Z,1.08
2023-07-30T01:48:15.915Z,0.75
2023-07-30T01:50:42.515Z,0.73
2023-07-30T01:53:09.019Z,1.40
2023-07-30T01:55:35.652Z,0.57
2023-07-30T01:58:02.176Z,0.85
2023-07-30T02:00:28.804Z,0.82
2023-07-30T02:03:04.166Z,0.85
2023-07-30T02:05:31.087Z,1.13
2023-07-30T02:07:58.883Z,0.82
2023-07-30T02:10:26.648Z,0.65
2023-07-30T02:12:55.591Z,1.20
2023-07-30T02:15:22.279Z,1.83
2023-07-30T02:17:48.916Z,1.38
2023-07-30T02:20:15.549Z,1.33
2023-07-30T02:22:42.170Z,1.15
2023-07-30T02:25:08.870Z,1.67
2023-07-30T02:27:35.547Z,1.02
2023-07-30T02:30:02.062Z,1.15
2023-07-30T02:32:28.750Z,1.08
2023-07-30T02:34:55.628Z,0.93
2023-07-30T02:37:22.336Z,2.15
2023-07-30T02:39:48.878Z,1.45
2023-07-30T02:42:15.413Z,1.88
2023-07-30T02:44:41.956Z,1.48
2023-07-30T02:47:08.662Z,0.55
2023-07-30T02:49:35.167Z,0.63
2023-07-30T02:52:01.848Z,1.42
2023-07-30T02:54:28.417Z,0.75
2023-07-30T02:56:54.992Z,0.88
2023-07-30T02:59:21.984Z,0.68
2023-07-30T03:01:49.035Z,1.42
2023-07-30T03:04:15.655Z,1.38
2023-07-30T03:06:42.408Z,0.80
2023-07-30T03:09:08.896Z,1.40
2023-07-30T03:11:41.314Z,1.25
2023-07-30T03:14:08.060Z,2.25
2023-07-30T03:16:34.861Z,1.85
2023-07-30T03:19:01.434Z,0.82
2023-07-30T03:21:27.948Z,1.15
2023-07-30T03:23:55.762Z,0.75
2023-07-30T03:26:22.742Z,2.22
2023-07-30T03:28:49.294Z,1.27
2023-07-30T03:31:15.899Z,1.10
2023-07-30T03:33:45.065Z,1.60
2023-07-30T03:36:16.499Z,1.80
2023-07-30T03:38:43.750Z,1.70
2023-07-30T03:41:12.107Z,2.38
2023-07-30T03:43:38.726Z,1.50
2023-07-30T03:46:05.485Z,1.65
2023-07-30T03:48:32.007Z,1.98
2023-07-30T03:50:58.726Z,1.85
2023-07-30T03:53:25.847Z,1.38
2023-07-30T03:55:53.583Z,1.63
2023-07-30T03:58:20.132Z,1.00
2023-07-30T04:00:46.684Z,1.25
2023-07-30T04:03:13.369Z,1.58
2023-07-30T04:05:39.952Z,1.23
2023-07-30T04:08:06.488Z,1.02
2023-07-30T04:10:33.116Z,1.23
2023-07-30T04:13:00.896Z,1.73
2023-07-30T04:15:27.594Z,1.42
2023-07-30T04:17:54.918Z,0.85
2023-07-30T04:20:22.883Z,2.15
2023-07-30T04:22:52.283Z,1.27
2023-07-30T04:25:19.395Z,3.05
2023-07-30T04:27:46.630Z,1.08
2023-07-30T04:30:13.511Z,1.05
2023-07-30T04:32:40.261Z,2.30
2023-07-30T04:35:07.446Z,1.38
2023-07-30T04:37:33.963Z,2.33
2023-07-30T04:40:00.581Z,2.30
2023-07-30T04:42:30.047Z,2.15
2023-07-30T04:44:57.602Z,1.02
2023-07-30T04:47:24.261Z,1.83
2023-07-30T04:49:50.805Z,1.40
2023-07-30T04:52:19.874Z,0.95
2023-07-30T04:54:47.489Z,1.33
2023-07-30T04:57:13.981Z,1.55
2023-07-30T04:59:41.799Z,2.50
2023-07-30T05:02:08.597Z,1.60
2023-07-30T05:04:35.252Z,3.17
2023-07-30T05:07:01.747Z,1.65
2023-07-30T05:09:28.318Z,1.63
2023-07-30T05:11:54.821Z,3.40
2023-07-30T05:14:21.317Z,2.65
2023-07-30T05:16:47.905Z,2.80
2023-07-30T05:19:14.492Z,3.28
2023-07-30T05:21:41.037Z,2.92
2023-07-30T05:24:08.669Z,3.42
2023-07-30T05:26:35.465Z,2.67
2023-07-30T05:29:01.968Z,2.25
2023-07-30T05:31:28.592Z,2.85
2023-07-30T05:33:55.216Z,2.65
2023-07-30T05:36:22.078Z,2.13
2023-07-30T05:38:49.647Z,1.95
2023-07-30T05:41:16.438Z,2.13
2023-07-30T05:43:43.115Z,2.25
2023-07-30T05:46:09.757Z,2.70
2023-07-30T05:48:36.342Z,1.73
2023-07-30T05:51:12.177Z,2.42
2023-07-30T05:53:38.774Z,1.67
2023-07-30T05:56:05.482Z,2.47
2023-07-30T05:58:32.076Z,2.55
2023-07-30T06:00:58.684Z,2.80
2023-07-30T06:03:25.232Z,2.65
2023-07-30T06:05:51.765Z,3.15
2023-07-30T06:08:18.435Z,3.13
2023-07-30T06:10:45.480Z,2.95
2023-07-30T06:13:11.964Z,3.35
2023-07-30T06:15:38.669Z,2.58
2023-07-30T06:18:05.225Z,2.50
2023-07-30T06:20:31.867Z,4.45
2023-07-30T06:22:58.443Z,4.10
2023-07-30T06:25:25.002Z,2.75
2023-07-30T06:27:52.378Z,2.97
2023-07-30T06:30:19.028Z,4.30
2023-07-30T06:32:45.626Z,4.40
2023-07-30T06:35:13.177Z,4.35
2023-07-30T06:37:39.788Z,4.25
2023-07-30T06:40:07.441Z,3.83
2023-07-30T06:42:34.435Z,3.38
2023-07-30T06:45:01.097Z,4.13
2023-07-30T06:47:27.870Z,4.15
2023-07-30T06:49:54.980Z,4.07
2023-07-30T06:52:21.967Z,3.05
2023-07-30T06:54:49.919Z,3.10
2023-07-30T06:57:16.528Z,3.90
2023-07-30T06:59:43.167Z,3.90
2023-07-30T07:02:09.803Z,3.15
2023-07-30T07:04:36.311Z,2.45
2023-07-30T07:07:04.649Z,2.38
2023-07-30T07:09:31.231Z,4.00
2023-07-30T07:11:58.072Z,3.33
2023-07-30T07:14:24.592Z,2.53
2023-07-30T07:16:51.320Z,4.50
2023-07-30T07:19:17.884Z,3.53
2023-07-30T07:21:44.453Z,3.15
2023-07-30T07:24:10.987Z,3.08
2023-07-30T07:26:37.499Z,2.83
2023-07-30T07:29:04.265Z,2.40
2023-07-30T07:31:30.778Z,2.40
2023-07-30T07:33:57.336Z,2.65
2023-07-30T07:36:23.982Z,2.90
2023-07-30T07:38:50.538Z,2.22
2023-07-30T07:41:17.852Z,2.20
2023-07-30T07:43:45.900Z,2.03
2023-07-30T07:46:14.626Z,1.60
2023-07-30T07:48:42.509Z,0.95
2023-07-30T07:51:11.512Z,0.73
2023-07-30T07:53:38.728Z,1.17
2023-07-30T07:56:05.443Z,1.52
2023-07-30T07:58:32.440Z,0.98
2023-07-30T08:00:59.710Z,0.88
2023-07-30T08:03:27.940Z,1.35
2023-07-30T08:05:54.902Z,1.02
2023-07-30T08:08:22.374Z,1.77
2023-07-30T08:10:49.844Z,1.17
2023-07-30T08:13:16.640Z,0.93
2023-07-30T08:15:43.141Z,3.20
2023-07-30T08:18:10.027Z,1.00
2023-07-30T08:20:37.810Z,1.30
2023-07-30T08:23:05.422Z,1.10
2023-07-30T08:25:31.972Z,1.08
2023-07-30T08:27:58.559Z,0.82
2023-07-30T08:30:25.106Z,1.38
2023-07-30T08:32:51.727Z,1.05
2023-07-30T08:35:18.541Z,1.40
2023-07-30T08:37:45.194Z,0.95
2023-07-30T08:40:15.173Z,1.00
2023-07-30T08:42:43.754Z,1.25
2023-07-30T08:45:10.423Z,0.70
2023-07-30T08:47:37.221Z,0.68
2023-07-30T08:50:05.292Z,1.30
2023-07-30T08:52:33.440Z,0.60
2023-07-30T08:55:02.453Z,0.88
2023-07-30T08:57:30.495Z,1.45
2023-07-30T09:00:12.943Z,1.40
2023-07-30T09:02:45.258Z,1.75
2023-07-30T09:05:12.237Z,0.57
2023-07-30T09:07:38.893Z,0.68
2023-07-30T09:10:05.751Z,0.85
2023-07-30T09:12:36.033Z,0.85
2023-07-30T09:15:07.260Z,0.90
2023-07-30T09:17:37.141Z,0.82
2023-07-30T09:20:05.301Z,0.52
2023-07-30T09:22:37.174Z,0.95
2023-07-30T09:25:04.346Z,0.95
2023-07-30T09:27:32.714Z,0.68
2023-07-30T09:30:01.572Z,1.50
2023-07-30T09:32:33.184Z,0.30
2023-07-30T09:35:11.333Z,0.60
2023-07-30T09:37:40.171Z,0.40
2023-07-30T09:40:13.924Z,1.55
2023-07-30T09:42:45.240Z,0.50
2023-07-30T09:45:23.825Z,0.30
2023-07-30T09:47:52.939Z,0.93
2023-07-30T09:50:20.171Z,0.50
2023-07-30T09:52:49.601Z,1.40
2023-07-30T09:55:16.570Z,0.82
2023-07-30T09:57:43.237Z,0.43
2023-07-30T10:00:10.551Z,0.20
2023-07-30T10:02:45.409Z,0.30
2023-07-30T10:05:16.243Z,0.75
2023-07-30T10:07:49.813Z,1.23
2023-07-30T10:10:16.568Z,1.05
2023-07-30T10:12:44.802Z,0.43
2023-07-30T10:15:12.315Z,0.50
2023-07-30T10:17:39.024Z,0.90
2023-07-30T10:20:28.074Z,0.30
2023-07-30T10:23:01.394Z,0.25
2023-07-30T10:25:47.074Z,0.50
2023-07-30T10:28:32.416Z,0.30
2023-07-30T10:31:02.082Z,0.43
2023-07-30T10:33:52.133Z,0.13
2023-07-30T10:36:37.552Z,0.90
2023-07-30T10:39:16.340Z,0.73
2023-07-30T10:41:45.634Z,0.32
2023-07-30T10:46:47.759Z,0.43
2023-07-30T10:49:14.388Z,0.38
2023-07-30T10:51:41.505Z,0.50
2023-07-30T10:54:09.597Z,0.90
2023-07-30T10:56:39.100Z,0.17
2023-07-30T10:59:09.248Z,0.17
2023-07-30T11:01:41.545Z,0.30
2023-07-30T11:04:14.643Z,0.65
2023-07-30T11:06:50.257Z,0.20
2023-07-30T11:11:49.631Z,0.22
2023-07-30T11:14:17.742Z,0.47
2023-07-30T11:16:51.846Z,0.40
2023-07-30T11:19:19.191Z,0.20
2023-07-30T11:21:52.471Z,0.13
2023-07-30T11:24:22.122Z,0.38
2023-07-30T11:26:59.529Z,0.45
2023-07-30T11:29:26.179Z,0.68
2023-07-30T11:31:58.738Z,0.22
2023-07-30T11:34:26.854Z,0.15
2023-07-30T11:36:55.310Z,0.22
2023-07-30T11:39:24.225Z,0.50
2023-07-30T11:41:50.824Z,0.57
2023-07-30T11:44:36.003Z,0.70
2023-07-30T11:47:04.929Z,0.90
2023-07-30T11:49:31.521Z,0.60
2023-07-30T11:52:09.598Z,1.02
2023-07-30T11:54:36.792Z,0.30
2023-07-30T11:57:03.487Z,0.30
2023-07-30T11:59:31.817Z,0.10
2023-07-30T12:01:58.864Z,0.20
2023-07-30T12:04:25.976Z,0.20
2023-07-30T12:06:54.633Z,0.20
2023-07-30T12:09:23.815Z,0.25
2023-07-30T12:12:02.275Z,0.32
2023-07-30T12:14:53.525Z,0.22
2023-07-30T12:17:20.164Z,0.75
2023-07-30T12:19:46.693Z,0.77
2023-07-30T12:22:13.257Z,0.20
2023-07-30T12:24:39.970Z,0.38
2023-07-30T12:27:07.496Z,0.22
2023-07-30T12:29:34.135Z,0.70
2023-07-30T12:34:46.908Z,0.60
2023-07-30T12:40:01.757Z,0.40
2023-07-30T12:42:37.239Z,0.10
2023-07-30T12:45:05.495Z,0.63
2023-07-30T12:47:32.044Z,0.20
2023-07-30T12:49:58.784Z,0.10
2023-07-30T12:52:25.320Z,0.20
2023-07-30T12:54:52.006Z,0.20
2023-07-30T12:57:18.808Z,0.22
2023-07-30T12:59:45.496Z,0.68
2023-07-30T13:02:12.048Z,0.10
2023-07-30T13:04:38.737Z,0.10
2023-07-30T13:07:06.573Z,0.32
2023-07-30T13:09:33.661Z,0.70
2023-07-30T13:12:00.325Z,0.10
2023-07-30T13:14:26.928Z,0.10
2023-07-30T13:16:53.610Z,0.30
2023-07-30T13:19:20.339Z,0.40
2023-07-30T13:21:46.921Z,0.10
2023-07-30T13:24:16.655Z,0.30
2023-07-30T13:29:09.762Z,0.10
2023-07-30T13:31:36.449Z,0.65
2023-07-30T13:34:03.116Z,0.10
2023-07-30T13:36:29.682Z,0.20
2023-07-30T13:38:56.391Z,0.35
2023-07-30T13:41:23.307Z,0.10
2023-07-30T13:43:49.933Z,0.10
2023-07-30T13:46:16.515Z,0.93
2023-07-30T13:48:43.127Z,0.47
2023-07-30T13:51:09.660Z,0.20
2023-07-30T13:53:39.644Z,0.10
2023-07-30T13:56:06.250Z,0.13
2023-07-30T13:58:32.903Z,0.52
2023-07-30T14:00:59.586Z,0.10
2023-07-30T14:03:26.216Z,0.10
2023-07-30T14:05:52.836Z,0.08
2023-07-30T14:08:19.679Z,0.65
2023-07-30T14:10:47.833Z,0.38
2023-07-30T14:13:14.468Z,0.40
2023-07-30T14:15:41.007Z,0.40
2023-07-30T14:18:07.779Z,0.13
2023-07-30T14:20:34.713Z,0.20
2023-07-30T14:23:02.529Z,0.10
2023-07-30T14:25:29.153Z,1.05
2023-07-30T14:27:56.001Z,0.20
2023-07-30T14:30:22.692Z,0.25
2023-07-30T14:32:49.366Z,1.15
2023-07-30T14:35:15.939Z,0.28
2023-07-30T14:37:42.774Z,0.20
2023-07-30T14:40:09.951Z,0.10
2023-07-30T14:42:36.505Z,0.40
2023-07-30T14:45:03.331Z,0.20
2023-07-30T14:47:30.128Z,0.22
2023-07-30T14:49:56.687Z,0.28
2023-07-30T14:52:23.322Z,0.20
2023-07-30T14:54:50.210Z,0.40
2023-07-30T14:57:16.712Z,0.22
2023-07-30T14:59:43.498Z,0.60
2023-07-30T15:02:10.281Z,0.30
2023-07-30T15:04:36.778Z,0.10
2023-07-30T15:07:03.834Z,0.57
2023-07-30T15:09:35.861Z,0.85
2023-07-30T15:12:03.122Z,0.30
2023-07-30T15:14:29.728Z,0.20
2023-07-30T15:16:57.918Z,0.38
2023-07-30T15:19:25.258Z,0.17
2023-07-30T15:21:51.956Z,0.52
2023-07-30T15:24:18.795Z,0.32
2023-07-30T15:26:45.295Z,0.85
2023-07-30T15:29:11.828Z,0.68
2023-07-30T15:31:38.764Z,0.20
2023-07-30T15:34:06.634Z,0.73
2023-07-30T15:36:33.362Z,0.70
2023-07-30T15:39:00.906Z,0.20
2023-07-30T15:41:27.725Z,0.20
2023-07-30T15:43:55.872Z,0.17
2023-07-30T15:46:23.901Z,0.30
2023-07-30T15:48:50.606Z,0.60
2023-07-30T15:51:17.694Z,0.22
2023-07-30T15:53:45.619Z,0.43
2023-07-30T15:56:14.781Z,0.20
2023-07-30T15:58:41.282Z,0.20
2023-07-30T16:01:10.761Z,0.20
2023-07-30T16:06:06.520Z,0.60
2023-07-30T16:08:37.302Z,0.35
2023-07-30T16:11:04.353Z,0.75
2023-07-30T16:13:30.867Z,1.05
2023-07-30T16:15:57.389Z,1.05
2023-07-30T16:18:23.922Z,1.05
2023-07-30T16:21:01.212Z,0.80
2023-07-30T16:23:27.789Z,0.30
2023-07-30T16:25:54.588Z,1.58
2023-07-30T16:28:21.642Z,0.60
2023-07-30T16:30:48.781Z,0.30
2023-07-30T16:33:15.855Z,1.00
2023-07-30T16:35:42.456Z,0.22
2023-07-30T16:38:09.415Z,0.30
2023-07-30T16:40:35.928Z,0.38
2023-07-30T16:43:02.635Z,0.50
2023-07-30T16:45:29.209Z,0.22
2023-07-30T16:47:55.767Z,0.52
2023-07-30T16:50:23.507Z,0.30
2023-07-30T16:52:51.050Z,0.82
2023-07-30T16:55:18.029Z,0.43
2023-07-30T16:57:44.542Z,0.40
2023-07-30T17:00:11.582Z,0.63
2023-07-30T17:02:38.226Z,0.57
2023-07-30T17:05:05.734Z,0.93
2023-07-30T17:07:32.302Z,1.45
2023-07-30T17:09:59.597Z,0.60
2023-07-30T17:12:26.546Z,1.10
2023-07-30T17:14:53.287Z,0.70
2023-07-30T17:17:19.759Z,0.82
2023-07-30T17:19:46.290Z,0.95
2023-07-30T17:22:12.811Z,0.30
2023-07-30T17:24:41.165Z,1.10
2023-07-30T17:27:07.815Z,0.55
2023-07-30T17:29:34.313Z,1.20
2023-07-30T17:32:01.111Z,1.23
2023-07-30T17:34:27.669Z,0.70
2023-07-30T17:36:56.479Z,0.70
2023-07-30T17:39:23.053Z,1.05
2023-07-30T17:41:49.600Z,0.22
2023-07-30T17:44:16.203Z,0.17
2023-07-30T17:46:42.798Z,0.45
2023-07-30T17:49:09.481Z,0.85
2023-07-30T17:51:35.992Z,0.82
2023-07-30T17:54:02.512Z,0.52
2023-07-30T17:56:29.133Z,1.65
2023-07-30T17:58:55.602Z,0.35
2023-07-30T18:01:22.192Z,0.50
2023-07-30T18:03:48.801Z,0.45
2023-07-30T18:06:15.434Z,0.25
2023-07-30T18:08:41.992Z,0.20
2023-07-30T18:11:08.633Z,0.13
2023-07-30T18:13:35.458Z,0.13
2023-07-30T18:16:02.247Z,0.60
2023-07-30T18:18:29.281Z,0.32
2023-07-30T18:20:55.760Z,0.38
2023-07-30T18:23:22.384Z,0.40
2023-07-30T18:25:48.897Z,0.38
2023-07-30T18:28:15.509Z,0.32
2023-07-30T18:30:42.015Z,0.25
2023-07-30T18:33:11.019Z,0.15
2023-07-30T18:35:39.271Z,0.22
2023-07-30T18:38:05.971Z,0.25
2023-07-30T18:40:37.339Z,0.40
2023-07-30T18:43:05.029Z,0.22
2023-07-30T18:45:33.996Z,0.43
2023-07-30T18:48:02.928Z,0.32
2023-07-30T18:50:30.792Z,0.52
2023-07-30T18:52:57.325Z,0.43
2023-07-30T18:55:23.865Z,0.80
2023-07-30T18:57:50.792Z,0.45
2023-07-30T19:00:17.357Z,0.28
2023-07-30T19:02:44.067Z,0.75
2023-07-30T19:05:10.643Z,0.75
2023-07-30T19:07:37.188Z,0.32
2023-07-30T19:10:04.064Z,0.47
2023-07-30T19:12:30.701Z,0.47
2023-07-30T19:14:57.553Z,0.77
2023-07-30T19:17:25.103Z,0.50
2023-07-30T19:19:53.011Z,0.45
2023-07-30T19:22:19.865Z,0.88
2023-07-30T19:24:47.632Z,0.47
2023-07-30T19:27:14.180Z,0.68
2023-07-30T19:29:40.793Z,0.47
2023-07-30T19:32:07.636Z,0.63
2023-07-30T19:34:34.937Z,0.75
2023-07-30T19:37:01.571Z,1.25
2023-07-30T19:39:28.245Z,0.35
2023-07-30T19:41:54.774Z,0.75
2023-07-30T19:44:21.287Z,1.00
2023-07-30T19:46:48.723Z,1.02
2023-07-30T19:49:15.769Z,1.58
2023-07-30T19:51:42.877Z,0.80
2023-07-30T19:54:10.578Z,0.68
2023-07-30T19:56:37.301Z,1.23
2023-07-30T19:59:04.806Z,0.63
2023-07-30T20:01:31.460Z,1.15
2023-07-30T20:03:57.988Z,1.33
2023-07-30T20:06:25.267Z,0.82
2023-07-30T20:08:51.852Z,1.33
2023-07-30T20:11:18.534Z,1.40
2023-07-30T20:13:45.169Z,0.68
2023-07-30T20:16:15.962Z,0.65
2023-07-30T20:18:43.123Z,0.93
2023-07-30T20:21:10.942Z,1.13
2023-07-30T20:23:37.908Z,0.98
2023-07-30T20:26:17.537Z,0.45
2023-07-30T20:28:47.014Z,0.70
2023-07-30T20:31:14.197Z,0.50
2023-07-30T20:33:41.250Z,0.38
2023-07-30T20:36:07.926Z,0.32
2023-07-30T20:38:34.550Z,0.75
2023-07-30T20:41:01.325Z,0.32
2023-07-30T20:43:28.196Z,0.52
2023-07-30T20:45:54.816Z,0.13
2023-07-30T20:48:21.335Z,0.60
2023-07-30T20:50:48.615Z,0.75
2023-07-30T20:53:15.438Z,1.05
2023-07-30T20:55:42.107Z,0.82
2023-07-30T20:58:08.655Z,1.20
2023-07-30T21:00:37.614Z,0.60
2023-07-30T21:03:04.479Z,0.65
2023-07-30T21:05:31.090Z,0.52
2023-07-30T21:07:57.624Z,0.40
2023-07-30T21:10:24.123Z,0.80
2023-07-30T21:12:50.655Z,0.15
2023-07-30T21:15:17.308Z,0.43
2023-07-30T21:17:43.867Z,1.05
2023-07-30T21:20:10.625Z,0.93
2023-07-30T21:22:37.131Z,0.28
2023-07-30T21:25:03.890Z,0.57
2023-07-30T21:27:30.572Z,0.73
2023-07-30T21:29:58.103Z,0.70
2023-07-30T21:32:24.678Z,0.50
2023-07-30T21:34:51.143Z,0.30
2023-07-30T21:37:17.712Z,0.73
2023-07-30T21:39:44.380Z,0.20
2023-07-30T21:42:10.950Z,0.63
2023-07-30T21:44:37.521Z,0.20
2023-07-30T21:47:04.421Z,0.50
2023-07-30T21:49:30.979Z,0.52
2023-07-30T21:51:57.690Z,0.45
2023-07-30T21:54:24.529Z,0.47
2023-07-30T21:56:51.136Z,0.52
2023-07-30T21:59:17.950Z,1.17
2023-07-30T22:01:44.582Z,0.20
2023-07-30T22:04:11.195Z,0.63
2023-07-30T22:06:38.067Z,0.35
2023-07-30T22:09:04.831Z,0.63
2023-07-30T22:11:32.340Z,0.13
2023-07-30T22:13:58.891Z,0.68
2023-07-30T22:16:25.602Z,0.98
2023-07-30T22:18:52.143Z,0.55
2023-07-30T22:21:19.160Z,0.65
2023-07-30T22:23:45.656Z,0.13
2023-07-30T22:26:12.175Z,0.17
2023-07-30T22:28:38.790Z,0.22
2023-07-30T22:31:05.530Z,0.32
2023-07-30T22:33:32.183Z,0.32
2023-07-30T22:35:59.396Z,0.40
2023-07-30T22:38:26.040Z,0.30
2023-07-30T22:40:52.728Z,0.30
2023-07-30T22:43:19.337Z,0.35
2023-07-30T22:45:46.270Z,0.20
2023-07-30T22:48:13.182Z,0.55
2023-07-30T22:50:40.365Z,0.20
2023-07-30T22:53:07.627Z,0.25
2023-07-30T22:55:34.277Z,0.22
2023-07-30T22:58:01.103Z,0.10
2023-07-30T23:00:27.655Z,0.85
2023-07-30T23:02:55.670Z,0.65
2023-07-30T23:05:22.307Z,0.10
2023-07-30T23:07:48.865Z,0.20
2023-07-30T23:10:15.819Z,0.50
2023-07-30T23:12:43.840Z,1.48
2023-07-30T23:15:10.393Z,0.30
2023-07-30T23:17:36.963Z,0.32
2023-07-30T23:20:03.932Z,0.32
2023-07-30T23:22:30.542Z,0.15
2023-07-30T23:24:57.089Z,0.35
2023-07-30T23:27:23.634Z,0.15
2023-07-30T23:29:50.277Z,0.30
2023-07-30T23:32:17.081Z,0.05
2023-07-30T23:34:43.588Z,0.30
2023-07-30T23:37:10.474Z,0.80
2023-07-30T23:39:37.096Z,0.20
2023-07-30T23:42:03.812Z,0.38
2023-07-30T23:44:30.397Z,0.57
2023-07-30T23:46:56.869Z,0.77
2023-07-30T23:49:23.342Z,0.40
2023-07-30T23:51:49.924Z,0.25
2023-07-30T23:54:16.429Z,0.55
2023-07-30T23:56:42.971Z,0.70
2023-07-30T23:59:09.634Z,0.47
